createdAt,value
2019-04-07T00:01:39.950Z,35.92
2019-04-07T00:04:09.325Z,35.85
2019-04-07T00:06:42.873Z,35.75
2019-04-07T00:09:12.539Z,35.80
2019-04-07T00:11:42.795Z,35.43
2019-04-07T00:14:12.638Z,34.55
2019-04-07T00:16:44.824Z,35.13
2019-04-07T00:19:14.197Z,38.05
2019-04-07T00:21:44.272Z,39.00
2019-04-07T00:24:13.639Z,34.58
2019-04-07T00:26:42.887Z,38.73
2019-04-07T00:29:12.062Z,39.92
2019-04-07T00:31:42.283Z,39.73
2019-04-07T00:34:13.384Z,36.83
2019-04-07T00:36:43.675Z,35.13
2019-04-07T00:39:12.793Z,35.50
2019-04-07T00:41:42.877Z,38.42
2019-04-07T00:44:12.520Z,38.63
2019-04-07T00:46:42.715Z,37.78
2019-04-07T00:49:13.122Z,38.63
2019-04-07T00:51:42.302Z,39.25
2019-04-07T00:54:11.514Z,37.65
2019-04-07T00:56:42.297Z,38.83
2019-04-07T00:59:11.651Z,39.48
2019-04-07T01:01:42.561Z,41.92
2019-04-07T01:04:12.253Z,44.58
2019-04-07T01:06:41.588Z,39.20
2019-04-07T01:09:12.345Z,40.98
2019-04-07T01:11:42.115Z,39.10
2019-04-07T01:14:12.413Z,40.75
2019-04-07T01:16:41.806Z,44.23
2019-04-07T01:19:10.951Z,51.58
2019-04-07T01:21:41.968Z,45.67
2019-04-07T01:24:13.289Z,42.53
2019-04-07T01:26:44.692Z,42.40
2019-04-07T01:29:18.367Z,48.58
2019-04-07T01:31:48.471Z,55.78
2019-04-07T01:34:19.598Z,62.83
2019-04-07T01:36:50.092Z,53.42
2019-04-07T01:39:19.466Z,52.45
2019-04-07T01:41:53.713Z,49.27
2019-04-07T01:44:41.125Z,43.78
2019-04-07T01:47:12.341Z,36.98
2019-04-07T01:49:47.647Z,36.55
2019-04-07T01:52:18.408Z,36.15
2019-04-07T01:54:57.904Z,36.98
2019-04-07T01:57:28.996Z,35.68
2019-04-07T02:00:11.303Z,40.60
2019-04-07T02:02:42.096Z,43.83
2019-04-07T02:05:22.047Z,40.03
2019-04-07T02:07:56.547Z,55.10
2019-04-07T02:10:44.471Z,44.23
2019-04-07T02:13:15.570Z,40.05
2019-04-07T02:15:49.392Z,40.58
2019-04-07T02:18:24.717Z,41.70
2019-04-07T02:21:07.288Z,38.35
2019-04-07T02:23:54.822Z,38.40
2019-04-07T02:26:26.804Z,40.60
2019-04-07T02:29:15.631Z,48.45
2019-04-07T02:31:55.264Z,61.60
2019-04-07T02:34:30.014Z,57.38
2019-04-07T02:37:04.784Z,45.65
2019-04-07T02:39:42.159Z,42.20
2019-04-07T02:42:13.156Z,54.60
2019-04-07T02:44:53.868Z,45.23
2019-04-07T02:47:31.290Z,53.15
2019-04-07T02:50:10.119Z,51.75
2019-04-07T02:52:41.998Z,50.75
2019-04-07T02:55:19.352Z,41.42
2019-04-07T02:57:52.805Z,40.85
2019-04-07T03:00:27.859Z,39.00
2019-04-07T03:03:14.624Z,39.10
2019-04-07T03:05:48.118Z,38.83
2019-04-07T03:08:18.906Z,36.90
2019-04-07T03:10:57.142Z,37.20
2019-04-07T03:13:29.073Z,39.83
2019-04-07T03:16:05.899Z,38.28
2019-04-07T03:18:42.624Z,39.73
2019-04-07T03:21:19.774Z,38.28
2019-04-07T03:24:02.570Z,38.38
2019-04-07T03:26:49.808Z,37.05
2019-04-07T03:29:23.961Z,35.78
2019-04-07T03:34:33.610Z,36.63
2019-04-07T03:37:23.067Z,32.33
2019-04-07T03:39:42.536Z,32.67
2019-04-07T03:42:24.941Z,35.08
2019-04-07T03:45:06.081Z,44.83
2019-04-07T03:47:39.768Z,37.35
2019-04-07T03:50:31.548Z,36.80
2019-04-07T03:53:14.365Z,39.63
2019-04-07T03:55:49.513Z,39.55
2019-04-07T03:58:26.295Z,40.90
2019-04-07T04:01:18.315Z,37.70
2019-04-07T04:03:49.472Z,42.88
2019-04-07T04:06:34.106Z,42.65
2019-04-07T04:09:22.251Z,38.78
2019-04-07T04:12:01.127Z,39.50
2019-04-07T04:14:44.143Z,38.25
2019-04-07T04:17:16.338Z,34.58
2019-04-07T04:19:47.190Z,37.83
2019-04-07T04:22:19.090Z,36.75
2019-04-07T04:24:50.279Z,34.58
2019-04-07T04:27:20.393Z,35.15
2019-04-07T04:29:53.046Z,34.38
2019-04-07T04:32:23.043Z,34.18
2019-04-07T04:34:53.221Z,34.18
2019-04-07T04:37:37.744Z,31.27
2019-04-07T04:39:58.247Z,36.93
2019-04-07T04:42:31.182Z,38.23
2019-04-07T04:45:12.159Z,43.55
2019-04-07T04:47:53.689Z,41.53
2019-04-07T04:50:25.801Z,40.48
2019-04-07T04:52:57.074Z,42.67
2019-04-07T04:55:31.874Z,38.92
2019-04-07T04:58:04.179Z,39.53
2019-04-07T05:00:34.135Z,42.60
2019-04-07T05:03:03.614Z,47.83
2019-04-07T05:05:35.683Z,52.95
2019-04-07T05:08:06.840Z,43.70
2019-04-07T05:10:38.952Z,41.25
2019-04-07T05:13:11.319Z,37.93
2019-04-07T05:15:43.370Z,36.20
2019-04-07T05:18:14.227Z,35.30
2019-04-07T05:20:45.347Z,33.05
2019-04-07T05:23:15.065Z,32.58
2019-04-07T05:25:48.101Z,35.68
2019-04-07T05:28:17.892Z,32.48
2019-04-07T05:30:48.072Z,30.25
2019-04-07T05:33:17.579Z,28.83
2019-04-07T05:35:48.592Z,27.95
2019-04-07T05:38:21.246Z,29.45
2019-04-07T05:40:50.985Z,26.93
2019-04-07T05:43:21.573Z,28.20
2019-04-07T05:45:50.974Z,29.82
2019-04-07T05:48:22.711Z,28.00
2019-04-07T05:50:53.792Z,27.85
2019-04-07T05:53:24.525Z,29.85
2019-04-07T05:55:55.573Z,29.72
2019-04-07T05:58:27.819Z,29.40
2019-04-07T06:01:00.257Z,28.25
2019-04-07T06:03:31.807Z,27.22
2019-04-07T06:06:02.865Z,27.40
2019-04-07T06:08:37.662Z,25.80
2019-04-07T06:11:07.970Z,26.12
2019-04-07T06:13:39.151Z,25.62
2019-04-07T06:16:22.621Z,25.95
2019-04-07T06:18:54.314Z,25.45
2019-04-07T06:24:42.627Z,25.35
2019-04-07T06:27:16.993Z,23.70
2019-04-07T06:29:45.697Z,21.75
2019-04-07T06:32:15.362Z,21.02
2019-04-07T06:34:50.661Z,22.30
2019-04-07T06:39:57.065Z,22.95
2019-04-07T06:42:34.081Z,22.73
2019-04-07T06:45:12.948Z,22.20
2019-04-07T06:47:47.068Z,22.35
2019-04-07T06:50:17.956Z,22.98
2019-04-07T06:52:59.388Z,23.50
2019-04-07T06:55:58.184Z,21.97
2019-04-07T06:58:46.547Z,20.23
2019-04-07T07:01:25.777Z,20.85
2019-04-07T07:04:12.663Z,20.57
2019-04-07T07:06:48.427Z,21.23
2019-04-07T07:09:31.841Z,21.15
2019-04-07T07:12:18.292Z,20.62
2019-04-07T07:14:45.939Z,19.20
2019-04-07T07:17:41.362Z,21.57
2019-04-07T07:20:21.811Z,19.77
2019-04-07T07:22:56.152Z,18.70
2019-04-07T07:25:29.825Z,20.80
2019-04-07T07:28:03.291Z,18.45
2019-04-07T07:33:02.889Z,18.45
2019-04-07T07:35:35.134Z,17.37
2019-04-07T07:38:05.977Z,14.20
2019-04-07T07:40:42.628Z,14.23
2019-04-07T07:43:13.218Z,12.70
2019-04-07T07:45:44.951Z,14.60
2019-04-07T07:48:14.455Z,13.35
2019-04-07T07:50:47.041Z,13.53
2019-04-07T07:53:19.185Z,6.70
2019-04-07T07:55:51.239Z,5.50
2019-04-07T07:58:21.080Z,5.83
2019-04-07T08:00:51.474Z,12.88
2019-04-07T08:03:22.920Z,6.45
2019-04-07T08:05:59.034Z,5.72
2019-04-07T08:08:32.217Z,4.90
2019-04-07T08:11:03.284Z,4.70
2019-04-07T08:13:42.123Z,4.97
2019-04-07T08:16:08.697Z,5.30
2019-04-07T08:18:43.354Z,4.83
2019-04-07T08:21:17.155Z,4.90
2019-04-07T08:23:45.642Z,4.65
2019-04-07T08:26:16.454Z,5.50
2019-04-07T08:28:48.219Z,5.58
2019-04-07T08:31:21.457Z,5.40
2019-04-07T08:33:51.833Z,4.25
2019-04-07T08:36:27.701Z,4.92
2019-04-07T08:38:59.564Z,5.22
2019-04-07T08:41:34.669Z,5.67
2019-04-07T08:44:09.494Z,4.90
2019-04-07T08:46:41.679Z,5.30
2019-04-07T08:49:12.761Z,5.87
2019-04-07T08:51:42.718Z,5.20
2019-04-07T08:54:24.649Z,4.80
2019-04-07T08:57:01.388Z,5.78
2019-04-07T08:59:30.250Z,5.33
2019-04-07T09:02:04.285Z,5.37
2019-04-07T09:04:36.623Z,5.50
2019-04-07T09:07:10.292Z,5.40
2019-04-07T09:09:48.701Z,5.17
2019-04-07T09:12:30.792Z,4.70
2019-04-07T09:15:03.144Z,5.00
2019-04-07T09:17:45.970Z,3.75
2019-04-07T09:20:14.660Z,5.78
2019-04-07T09:22:47.449Z,5.17
2019-04-07T09:28:45.361Z,5.22
2019-04-07T09:31:17.493Z,4.92
2019-04-07T09:33:51.828Z,4.90
2019-04-07T09:36:27.662Z,4.42
2019-04-07T09:39:22.484Z,4.40
2019-04-07T09:42:14.804Z,4.67
2019-04-07T09:44:57.403Z,4.67
2019-04-07T09:47:47.755Z,4.08
2019-04-07T09:50:34.622Z,3.58
2019-04-07T09:53:23.017Z,2.22
2019-04-07T09:56:03.806Z,3.15
2019-04-07T09:58:48.510Z,2.83
2019-04-07T10:01:27.661Z,2.33
2019-04-07T10:04:07.339Z,2.20
2019-04-07T10:06:59.059Z,2.50
2019-04-07T10:09:30.082Z,2.50
2019-04-07T10:12:20.132Z,1.65
2019-04-07T10:15:11.785Z,1.77
2019-04-07T10:18:08.667Z,1.60
2019-04-07T10:20:59.910Z,1.40
2019-04-07T10:32:18.898Z,1.90
2019-04-07T10:34:56.671Z,2.02
2019-04-07T10:37:42.804Z,2.08
2019-04-07T10:40:35.493Z,1.60
2019-04-07T10:43:21.480Z,1.65
2019-04-07T10:45:53.882Z,1.60
2019-04-07T10:48:42.135Z,1.92
2019-04-07T10:51:16.394Z,1.70
2019-04-07T10:54:04.851Z,1.55
2019-04-07T10:56:57.290Z,1.30
2019-04-07T10:59:40.566Z,1.85
2019-04-07T11:02:18.148Z,1.57
2019-04-07T11:05:10.377Z,1.40
2019-04-07T11:07:48.269Z,2.00
2019-04-07T11:10:32.566Z,1.80
2019-04-07T11:13:01.906Z,1.70
2019-04-07T11:19:00.379Z,1.65
2019-04-07T11:21:42.569Z,1.70
2019-04-07T11:24:31.599Z,1.80
2019-04-07T11:30:14.675Z,1.80
2019-04-07T11:32:53.366Z,1.62
2019-04-07T11:35:36.918Z,1.52
2019-04-07T11:38:23.953Z,1.80
2019-04-07T11:41:04.319Z,1.27
2019-04-07T11:43:40.786Z,1.35
2019-04-07T11:46:17.486Z,1.25
2019-04-07T11:48:54.845Z,1.70
2019-04-07T11:51:28.275Z,1.47
2019-04-07T11:54:14.379Z,1.60
2019-04-07T11:56:46.019Z,1.50
2019-04-07T11:59:21.958Z,1.60
2019-04-07T12:01:53.072Z,1.55
2019-04-07T12:04:30.590Z,1.50
2019-04-07T12:07:02.447Z,1.55
2019-04-07T12:09:59.640Z,1.50
2019-04-07T12:12:37.492Z,1.27
2019-04-07T12:15:29.995Z,1.90
2019-04-07T12:18:08.739Z,1.62
2019-04-07T12:20:56.259Z,1.50
2019-04-07T12:23:30.702Z,1.57
2019-04-07T12:26:12.871Z,1.67
2019-04-07T12:28:47.610Z,1.70
2019-04-07T12:31:24.905Z,1.60
2019-04-07T12:34:14.110Z,1.27
2019-04-07T12:37:06.493Z,1.50
2019-04-07T12:39:53.408Z,1.30
2019-04-07T12:42:39.545Z,1.57
2019-04-07T12:45:14.431Z,1.92
2019-04-07T12:48:06.869Z,1.62
2019-04-07T12:50:49.848Z,1.50
2019-04-07T12:56:00.297Z,1.62
2019-04-07T13:01:37.107Z,1.50
2019-04-07T13:04:15.452Z,1.87
2019-04-07T13:07:05.087Z,1.67
2019-04-07T13:09:46.135Z,3.80
2019-04-07T13:12:32.213Z,1.80
2019-04-07T13:15:11.167Z,2.00
2019-04-07T13:18:03.630Z,1.80
2019-04-07T13:20:51.253Z,1.80
2019-04-07T13:23:32.935Z,2.12
2019-04-07T13:26:07.712Z,2.22
2019-04-07T13:28:54.903Z,1.98
2019-04-07T13:31:39.572Z,1.80
2019-04-07T13:34:24.800Z,1.92
2019-04-07T13:36:59.026Z,1.82
2019-04-07T13:39:36.632Z,2.17
2019-04-07T13:42:10.233Z,1.77
2019-04-07T13:44:46.708Z,2.20
2019-04-07T13:47:23.342Z,2.08
2019-04-07T13:50:00.908Z,2.00
2019-04-07T13:52:33.430Z,2.40
2019-04-07T13:55:21.912Z,2.08
2019-04-07T13:57:59.565Z,2.30
2019-04-07T14:00:40.428Z,2.62
2019-04-07T14:03:29.095Z,2.47
2019-04-07T14:06:03.419Z,2.45
2019-04-07T14:08:51.706Z,2.67
2019-04-07T14:11:23.068Z,2.70
2019-04-07T14:14:06.891Z,2.37
2019-04-07T14:16:55.874Z,3.20
2019-04-07T14:19:28.837Z,3.20
2019-04-07T14:22:04.294Z,3.30
2019-04-07T14:24:59.530Z,3.58
2019-04-07T14:27:36.250Z,3.45
2019-04-07T14:30:11.379Z,2.87
2019-04-07T14:33:03.389Z,3.20
2019-04-07T14:35:35.763Z,3.20
2019-04-07T14:38:14.700Z,3.15
2019-04-07T14:40:45.701Z,3.30
2019-04-07T14:43:29.940Z,3.55
2019-04-07T14:46:17.329Z,3.30
2019-04-07T14:49:13.482Z,3.40
2019-04-07T14:51:49.909Z,3.98
2019-04-07T14:54:30.758Z,4.25
2019-04-07T14:57:07.340Z,4.10
2019-04-07T14:59:38.426Z,4.35
2019-04-07T15:05:00.905Z,4.90
2019-04-07T15:07:51.436Z,4.25
2019-04-07T15:10:22.750Z,4.87
2019-04-07T15:12:58.858Z,5.30
2019-04-07T15:15:30.313Z,5.60
2019-04-07T15:18:03.571Z,5.08
2019-04-07T15:20:35.984Z,4.90
2019-04-07T15:23:05.523Z,6.10
2019-04-07T15:25:36.585Z,6.37
2019-04-07T15:28:12.321Z,5.80
2019-04-07T15:30:46.011Z,6.25
2019-04-07T15:33:17.779Z,5.83
2019-04-07T15:35:50.137Z,5.35
2019-04-07T15:38:24.841Z,5.50
2019-04-07T15:40:59.822Z,5.67
2019-04-07T15:43:33.321Z,5.65
2019-04-07T15:46:03.658Z,5.87
2019-04-07T15:48:38.842Z,5.83
2019-04-07T15:51:13.342Z,5.67
2019-04-07T15:53:46.520Z,5.53
2019-04-07T15:56:20.758Z,5.92
2019-04-07T15:58:59.101Z,6.05
2019-04-07T16:01:28.367Z,6.58
2019-04-07T16:04:00.160Z,6.30
2019-04-07T16:06:38.805Z,6.00
2019-04-07T16:12:09.961Z,5.47
2019-04-07T16:14:57.913Z,5.75
2019-04-07T16:17:34.764Z,6.33
2019-04-07T16:20:22.247Z,8.93
2019-04-07T16:22:47.646Z,16.82
2019-04-07T16:25:16.917Z,7.83
2019-04-07T16:27:52.560Z,6.92
2019-04-07T16:30:24.823Z,6.33
2019-04-07T16:33:02.559Z,6.83
2019-04-07T16:35:34.656Z,10.65
2019-04-07T16:38:05.382Z,11.05
2019-04-07T16:40:35.994Z,15.40
2019-04-07T16:43:15.073Z,6.58
2019-04-07T16:45:48.463Z,8.33
2019-04-07T16:48:26.120Z,11.45
2019-04-07T16:50:57.921Z,8.25
2019-04-07T16:56:28.689Z,6.10
2019-04-07T16:59:01.281Z,6.33
2019-04-07T17:01:35.455Z,6.67
2019-04-07T17:04:06.875Z,6.67
2019-04-07T17:06:36.420Z,7.17
2019-04-07T17:09:13.660Z,6.70
2019-04-07T17:11:46.067Z,6.65
2019-04-07T17:14:20.815Z,6.00
2019-04-07T17:17:00.984Z,6.47
2019-04-07T17:19:30.727Z,6.80
2019-04-07T17:22:01.707Z,6.85
2019-04-07T17:24:35.348Z,6.55
2019-04-07T17:27:11.760Z,6.15
2019-04-07T17:29:43.628Z,5.75
2019-04-07T17:32:16.917Z,6.97
2019-04-07T17:34:46.910Z,6.83
2019-04-07T17:37:16.521Z,6.72
2019-04-07T17:39:51.431Z,7.12
2019-04-07T17:45:02.095Z,7.83
2019-04-07T17:47:37.070Z,7.67
2019-04-07T17:50:20.042Z,8.10
2019-04-07T17:52:52.324Z,7.67
2019-04-07T17:55:43.065Z,8.25
2019-04-07T17:58:22.550Z,8.60
2019-04-07T18:01:14.261Z,8.43
2019-04-07T18:03:47.332Z,8.63
2019-04-07T18:06:38.682Z,9.05
2019-04-07T18:09:23.419Z,8.88
2019-04-07T18:12:15.703Z,9.00
2019-04-07T18:15:09.613Z,8.70
2019-04-07T18:17:44.539Z,8.23
2019-04-07T18:20:36.311Z,8.50
2019-04-07T18:23:28.906Z,8.78
2019-04-07T18:26:06.225Z,8.33
2019-04-07T18:28:55.198Z,8.28
2019-04-07T18:31:36.156Z,8.65
2019-04-07T18:34:25.123Z,9.78
2019-04-07T18:36:54.213Z,9.88
2019-04-07T18:39:34.161Z,11.38
2019-04-07T18:42:17.793Z,10.28
2019-04-07T18:45:07.913Z,12.50
2019-04-07T18:47:41.666Z,14.18
2019-04-07T18:50:12.843Z,13.08
2019-04-07T18:52:44.550Z,12.05
2019-04-07T18:55:26.118Z,11.63
2019-04-07T18:58:12.707Z,11.70
2019-04-07T19:00:57.639Z,11.88
2019-04-07T19:03:51.946Z,11.80
2019-04-07T19:06:26.668Z,11.68
2019-04-07T19:09:02.088Z,11.63
2019-04-07T19:12:01.370Z,11.95
2019-04-07T19:14:46.086Z,12.82
2019-04-07T19:17:22.537Z,12.75
2019-04-07T19:20:11.657Z,12.30
2019-04-07T19:22:49.040Z,11.50
2019-04-07T19:28:12.283Z,11.78
2019-04-07T19:33:47.477Z,13.08
2019-04-07T19:39:39.290Z,12.93
2019-04-07T19:42:22.768Z,12.90
2019-04-07T19:44:56.270Z,13.72
2019-04-07T19:47:39.976Z,12.58
2019-04-07T19:50:11.577Z,14.38
2019-04-07T19:52:54.879Z,13.88
2019-04-07T19:55:43.333Z,13.43
2019-04-07T19:58:20.302Z,12.90
2019-04-07T20:01:09.107Z,13.72
2019-04-07T20:03:46.030Z,12.98
2019-04-07T20:06:24.812Z,13.48
2019-04-07T20:09:11.608Z,14.55
2019-04-07T20:11:44.348Z,13.08
2019-04-07T20:14:48.006Z,13.70
2019-04-07T20:17:31.008Z,12.88
2019-04-07T20:20:17.407Z,13.35
2019-04-07T20:22:49.643Z,12.55
2019-04-07T20:25:23.362Z,12.78
2019-04-07T20:28:03.576Z,13.38
2019-04-07T20:30:38.111Z,12.82
2019-04-07T20:33:22.741Z,12.40
2019-04-07T20:35:59.259Z,12.18
2019-04-07T20:38:40.135Z,12.75
2019-04-07T20:41:24.651Z,13.22
2019-04-07T20:49:41.163Z,10.65
2019-04-07T20:52:26.171Z,11.75
2019-04-07T20:55:13.293Z,11.45
2019-04-07T20:58:14.463Z,11.43
2019-04-07T21:00:38.151Z,11.00
2019-04-07T21:03:29.614Z,10.80
2019-04-07T21:06:07.187Z,11.12
2019-04-07T21:08:45.540Z,12.07
2019-04-07T21:11:17.255Z,11.97
2019-04-07T21:13:54.766Z,11.70
2019-04-07T21:16:44.327Z,11.18
2019-04-07T21:19:38.317Z,10.70
2019-04-07T21:22:13.976Z,11.57
2019-04-07T21:25:03.946Z,11.40
2019-04-07T21:27:40.841Z,12.13
2019-04-07T21:30:17.362Z,11.33
2019-04-07T21:32:52.582Z,11.70
2019-04-07T21:35:35.361Z,12.10
2019-04-07T21:38:25.839Z,12.43
2019-04-07T21:41:26.431Z,11.57
2019-04-07T21:44:15.902Z,12.25
2019-04-07T21:47:04.317Z,11.63
2019-04-07T21:49:39.413Z,11.28
2019-04-07T21:55:23.316Z,11.38
2019-04-07T21:58:14.625Z,11.90
2019-04-07T22:00:50.996Z,11.55
2019-04-07T22:03:39.732Z,12.28
2019-04-07T22:06:20.252Z,11.45
2019-04-07T22:08:51.819Z,12.15
2019-04-07T22:11:24.701Z,11.28
2019-04-07T22:13:55.371Z,10.82
2019-04-07T22:16:25.533Z,10.88
2019-04-07T22:18:56.822Z,11.55
2019-04-07T22:21:26.057Z,11.48
2019-04-07T22:23:55.148Z,11.18
2019-04-07T22:26:26.384Z,11.43
2019-04-07T22:28:59.952Z,11.18
2019-04-07T22:31:33.539Z,11.53
2019-04-07T22:34:04.559Z,11.35
2019-04-07T22:36:35.658Z,11.80
2019-04-07T22:39:06.194Z,11.22
2019-04-07T22:41:41.243Z,11.48
2019-04-07T22:44:25.092Z,11.53
2019-04-07T22:46:52.748Z,11.00
2019-04-07T22:49:23.372Z,11.05
2019-04-07T22:51:56.297Z,10.82
2019-04-07T22:54:30.987Z,11.15
2019-04-07T22:57:03.546Z,11.22
2019-04-07T22:59:33.178Z,12.45
2019-04-07T23:02:03.273Z,12.00
2019-04-07T23:04:34.294Z,12.65
2019-04-07T23:07:04.203Z,11.75
2019-04-07T23:09:39.069Z,11.80
2019-04-07T23:12:08.498Z,12.95
2019-04-07T23:14:40.145Z,11.95
2019-04-07T23:17:11.971Z,12.75
2019-04-07T23:19:41.976Z,11.60
2019-04-07T23:22:11.786Z,12.68
2019-04-07T23:24:41.959Z,12.43
2019-04-07T23:27:12.701Z,12.20
2019-04-07T23:29:42.403Z,11.97
2019-04-07T23:32:11.691Z,10.93
2019-04-07T23:34:41.533Z,11.57
2019-04-07T23:37:10.647Z,11.78
2019-04-07T23:39:41.891Z,10.98
2019-04-07T23:42:11.078Z,11.35
2019-04-07T23:44:40.202Z,11.18
2019-04-07T23:47:09.994Z,12.60
2019-04-07T23:49:42.639Z,12.07
2019-04-07T23:52:11.803Z,11.22
2019-04-07T23:54:42.570Z,11.35
2019-04-07T23:57:12.021Z,11.70
2019-04-07T23:59:41.989Z,11.40
